Архив погоды в Астрахани

Метеограмма Астрахань обсерватория
Вторник, 14 Августа
Время местн. Темп Ветер Видим Явления Облачность нижн/средн/верх Атм. давл. Влжн Точка росы ВНГО R Сост. почвы Tg s
Напр Скр Прв ур.ст ур.м изм
12:00 +30.8° С-З 2 - 10 км - переменная облачность 762 761 -0.5 28% +10° 1.5 км - - - -
09:00 +27.1° З,С-З 2 - 10 км - незначительная облачность 763 761 +0.5 36% +10.8° - - - - -
06:00 +19.5° З,С-З 1 - 10 км - переменная облачность 762 760 +0.6 68% +13.5° 1 км - Сухая (без трещин) - -
03:00 +19.7° Ю-З 1 - 10 км - ясно 762 760 +0.1 76% +15.3° более 2.5 км - - - -
00:00 +21.2° Ю 1 - 10 км - облачно с прояснениями 762 760 0 69% +15.4° - - - - -
Понедельник, 13 Августа
Время местн. Темп Ветер Видим Явления Облачность нижн/средн/верх Атм. давл. Влжн Точка росы ВНГО R Сост. почвы Tg s
Напр Скр Прв ур.ст ур.м изм
21:00 +19° З,Ю-З 1 - 10 км - переменная облачность 762 760 +0.6 78% +15.1° 1.5 км - - - -
18:00 +25.1° Ю 1 - 10 км - переменная облачность 761 759 -0.5 46% +12.7° 1 км - - - -
15:00 +24.3° С-З 1 - 10 км - преимущественно облачно 762 760 -0.8 50% +13.2° 1 км - - - -
12:00 +23.6° Ю,Ю-З 2 - 10 км - преимущественно облачно 762 761 -0.5 50% +12.5° 1 км - - - -
09:00 +20.8° З,Ю-З 2 - 10 км небо без изменений {ливневые осадки} облачно с прояснениями 763 761 +0.2 64% +13.7° 1 км - - - -
06:00 +18° З 1 - 10 км небо без изменений {ливневые осадки} облачно 763 761 -0.2 79% +14.4° 600 м - Влажная (без луж) - -
03:00 +16.8° С-З 1 - 4 км слабый ливневый дождь облачно 763 761 -0.8 88% +14.8° 600 м - - - -
00:00 +16.9° Ю-В 2 - 4 км слабый ливневый дождь облачно 763 762 -0.7 77% +12.8° 600 м - - - -
Воскресенье, 12 Августа
Время местн. Темп Ветер Видим Явления Облачность нижн/средн/верх Атм. давл. Влжн Точка росы ВНГО R Сост. почвы Tg s
Напр Скр Прв ур.ст ур.м изм
21:00 +20.5° Ю 4 - 10 км слабый ливневый дождь облачно 764 762 +0.6 65% +13.7° 600 м - - - -
18:00 +23.9° Ю 2 - 10 км - преимущественно облачно 764 762 -0.4 53% +13.7° 1 км - - - -
15:00 +27.4° В 3 - 10 км - преимущественно облачно 764 762 -1.1 23% +4.6° 1 км - - - -
12:00 +28° В,С-В 3 - 10 км - облачно с прояснениями 765 763 -0.8 23% +5.2° 1.5 км - - - -
09:00 +25.6° С 1 - 10 км - переменная облачность 766 764 -0.8 36% +9.4° - - - - -
06:00 +17.3° С-З 2 - 10 км - переменная облачность 766 765 -0.3 58% +9° - - Сухая (без трещин) - -
03:00 +16.7° З,С-З 2 - 10 км - ясно 767 765 -1.1 72% +11.7° более 2.5 км - - - -
00:00 +18.5° З,Ю-З 1 - 10 км - ясно 768 766 -0.5 64% +11.5° более 2.5 км - - - -
Суббота, 11 Августа
Время местн. Темп Ветер Видим Явления Облачность нижн/средн/верх Атм. давл. Влжн Точка росы ВНГО R Сост. почвы Tg s
Напр Скр Прв ур.ст ур.м изм
21:00 +19.7° Ю 2 - 10 км - ясно 768 766 +0.7 55% +10.4° более 2.5 км - - - -
18:00 +25.8° В,С-В 1 - 10 км - незначительная облачность 768 766 -0.8 23% +2.9° - - - - -
15:00 +26.4° С 2 - 10 км - переменная облачность 768 767 -1.3 23% +3.6° - - - - -
12:00 +25.1° С 2 - 10 км - переменная облачность 770 768 -0.7 26% +4.2° - - - - -
09:00 +22.4° С,С-В 3 - 10 км - переменная облачность 770 768 +0.5 31% +4.3° - - - - -